Terminal Aerodrome Forecast
Issued by NWS Northern Indiana

Home | Current Version | Previous Version | Text Only | Print | Product List | Glossary Off
Versions: 1 2 3 4 5 6 7 8 9 10 11 12 13 14 15 16 17

000
FTUS43 KIWX 220526
TAFFWA
TAF
KFWA 220526Z 2206/2306 21004KT P6SM BKN035
      TEMPO 2208/2211 3SM BR
     FM221100 21004KT 2SM BR BKN010
     FM221500 21009KT P6SM BKN020
     FM222100 21011KT P6SM SCT025=

USA.gov is the U.S. government's official web portal to all federal, state and local government web resources and services.